sensor_id;sensor_type;location;lat;lon;timestamp;P1;durP1;ratioP1;P2;durP2;ratioP2
56794;SDS011;42678;59.400;18.410;2023-01-28T00:00:54;1.83;;;1.07;;
56794;SDS011;42678;59.400;18.410;2023-01-28T00:03:19;2.97;;;0.80;;
56794;SDS011;42678;59.400;18.410;2023-01-28T00:05:45;3.53;;;1.10;;
56794;SDS011;42678;59.400;18.410;2023-01-28T00:08:10;6.20;;;1.57;;
56794;SDS011;42678;59.400;18.410;2023-01-28T00:10:37;3.03;;;1.10;;
56794;SDS011;42678;59.400;18.410;2023-01-28T00:13:04;4.37;;;2.23;;
56794;SDS011;42678;59.400;18.410;2023-01-28T00:15:29;4.57;;;1.10;;
56794;SDS011;42678;59.400;18.410;2023-01-28T00:17:55;5.33;;;1.33;;
56794;SDS011;42678;59.400;18.410;2023-01-28T00:20:20;6.33;;;1.83;;
56794;SDS011;42678;59.400;18.410;2023-01-28T00:22:48;4.13;;;1.30;;
56794;SDS011;42678;59.400;18.410;2023-01-28T00:25:14;2.43;;;1.00;;
56794;SDS011;42678;59.400;18.410;2023-01-28T00:27:40;4.03;;;1.40;;
56794;SDS011;42678;59.400;18.410;2023-01-28T00:30:05;2.80;;;1.33;;
56794;SDS011;42678;59.400;18.410;2023-01-28T00:32:31;2.27;;;0.97;;
56794;SDS011;42678;59.400;18.410;2023-01-28T00:34:57;3.57;;;1.13;;
56794;SDS011;42678;59.400;18.410;2023-01-28T00:37:22;1.93;;;0.90;;
56794;SDS011;42678;59.400;18.410;2023-01-28T00:39:48;2.00;;;0.73;;
56794;SDS011;42678;59.400;18.410;2023-01-28T00:42:13;2.73;;;1.00;;
56794;SDS011;42678;59.400;18.410;2023-01-28T00:44:39;1.70;;;0.80;;
56794;SDS011;42678;59.400;18.410;2023-01-28T00:47:04;2.77;;;0.87;;
56794;SDS011;42678;59.400;18.410;2023-01-28T00:49:30;1.23;;;0.63;;
56794;SDS011;42678;59.400;18.410;2023-01-28T00:51:55;2.10;;;0.70;;
56794;SDS011;42678;59.400;18.410;2023-01-28T00:54:20;3.10;;;0.77;;
56794;SDS011;42678;59.400;18.410;2023-01-28T00:56:46;3.80;;;0.70;;
56794;SDS011;42678;59.400;18.410;2023-01-28T00:59:11;4.53;;;1.00;;
56794;SDS011;42678;59.400;18.410;2023-01-28T01:01:38;2.77;;;0.67;;
56794;SDS011;42678;59.400;18.410;2023-01-28T01:04:04;3.47;;;0.77;;
56794;SDS011;42678;59.400;18.410;2023-01-28T01:06:34;2.00;;;0.53;;
56794;SDS011;42678;59.400;18.410;2023-01-28T01:09:00;2.00;;;0.70;;
56794;SDS011;42678;59.400;18.410;2023-01-28T01:11:26;0.47;;;0.27;;
56794;SDS011;42678;59.400;18.410;2023-01-28T01:13:56;1.23;;;0.50;;
56794;SDS011;42678;59.400;18.410;2023-01-28T01:16:22;2.15;;;0.40;;
56794;SDS011;42678;59.400;18.410;2023-01-28T01:18:49;3.00;;;0.57;;
56794;SDS011;42678;59.400;18.410;2023-01-28T01:21:17;1.73;;;0.68;;
56794;SDS011;42678;59.400;18.410;2023-01-28T01:23:43;1.07;;;0.57;;
56794;SDS011;42678;59.400;18.410;2023-01-28T01:26:09;3.35;;;0.60;;
56794;SDS011;42678;59.400;18.410;2023-01-28T01:28:35;1.90;;;0.73;;
56794;SDS011;42678;59.400;18.410;2023-01-28T01:31:14;1.93;;;0.50;;
56794;SDS011;42678;59.400;18.410;2023-01-28T01:33:40;1.60;;;0.70;;
56794;SDS011;42678;59.400;18.410;2023-01-28T01:36:06;1.70;;;0.60;;
56794;SDS011;42678;59.400;18.410;2023-01-28T01:38:32;1.73;;;0.63;;
56794;SDS011;42678;59.400;18.410;2023-01-28T01:40:58;1.93;;;0.70;;
56794;SDS011;42678;59.400;18.410;2023-01-28T01:43:23;1.02;;;0.28;;
56794;SDS011;42678;59.400;18.410;2023-01-28T01:45:51;0.85;;;0.40;;
56794;SDS011;42678;59.400;18.410;2023-01-28T01:48:23;2.00;;;0.70;;
56794;SDS011;42678;59.400;18.410;2023-01-28T01:50:53;0.80;;;0.30;;
56794;SDS011;42678;59.400;18.410;2023-01-28T01:53:21;1.05;;;0.57;;
56794;SDS011;42678;59.400;18.410;2023-01-28T01:55:49;0.95;;;0.57;;
56794;SDS011;42678;59.400;18.410;2023-01-28T01:58:16;1.67;;;0.40;;
56794;SDS011;42678;59.400;18.410;2023-01-28T02:00:42;1.20;;;0.50;;
56794;SDS011;42678;59.400;18.410;2023-01-28T02:03:09;1.52;;;0.52;;
56794;SDS011;42678;59.400;18.410;2023-01-28T02:05:34;2.30;;;0.73;;
56794;SDS011;42678;59.400;18.410;2023-01-28T02:08:00;0.90;;;0.47;;
56794;SDS011;42678;59.400;18.410;2023-01-28T02:10:45;1.53;;;0.30;;
56794;SDS011;42678;59.400;18.410;2023-01-28T02:13:12;1.90;;;0.63;;
56794;SDS011;42678;59.400;18.410;2023-01-28T02:15:38;2.03;;;0.40;;
56794;SDS011;42678;59.400;18.410;2023-01-28T02:18:04;1.63;;;0.73;;
56794;SDS011;42678;59.400;18.410;2023-01-28T02:23:20;1.85;;;0.60;;
56794;SDS011;42678;59.400;18.410;2023-01-28T02:28:26;1.20;;;0.40;;
56794;SDS011;42678;59.400;18.410;2023-01-28T02:36:29;2.47;;;0.40;;
56794;SDS011;42678;59.400;18.410;2023-01-28T02:38:58;1.73;;;0.40;;
56794;SDS011;42678;59.400;18.410;2023-01-28T02:41:30;3.23;;;0.90;;
56794;SDS011;42678;59.400;18.410;2023-01-28T02:43:57;5.43;;;0.40;;
56794;SDS011;42678;59.400;18.410;2023-01-28T02:49:11;1.50;;;0.70;;
56794;SDS011;42678;59.400;18.410;2023-01-28T02:54:36;1.50;;;0.37;;
56794;SDS011;42678;59.400;18.410;2023-01-28T02:57:24;2.33;;;0.47;;
56794;SDS011;42678;59.400;18.410;2023-01-28T03:00:07;1.40;;;0.20;;
56794;SDS011;42678;59.400;18.410;2023-01-28T03:02:35;11.50;;;0.77;;
56794;SDS011;42678;59.400;18.410;2023-01-28T03:05:04;2.00;;;0.50;;
56794;SDS011;42678;59.400;18.410;2023-01-28T03:07:31;0.43;;;0.20;;
56794;SDS011;42678;59.400;18.410;2023-01-28T03:09:59;1.47;;;0.80;;
56794;SDS011;42678;59.400;18.410;2023-01-28T03:12:28;1.00;;;0.17;;
56794;SDS011;42678;59.400;18.410;2023-01-28T03:18:06;1.57;;;0.70;;
56794;SDS011;42678;59.400;18.410;2023-01-28T03:21:01;1.60;;;0.37;;
56794;SDS011;42678;59.400;18.410;2023-01-28T03:23:55;1.60;;;0.37;;
56794;SDS011;42678;59.400;18.410;2023-01-28T03:26:43;3.00;;;0.50;;
56794;SDS011;42678;59.400;18.410;2023-01-28T03:29:28;2.93;;;0.70;;
56794;SDS011;42678;59.400;18.410;2023-01-28T03:32:14;0.77;;;0.10;;
56794;SDS011;42678;59.400;18.410;2023-01-28T03:34:58;0.95;;;0.20;;
56794;SDS011;42678;59.400;18.410;2023-01-28T03:37:42;3.30;;;0.77;;
56794;SDS011;42678;59.400;18.410;2023-01-28T03:40:08;1.83;;;0.50;;
56794;SDS011;42678;59.400;18.410;2023-01-28T03:42:33;1.67;;;0.35;;
56794;SDS011;42678;59.400;18.410;2023-01-28T03:45:01;1.48;;;0.20;;
56794;SDS011;42678;59.400;18.410;2023-01-28T03:47:29;2.37;;;0.30;;
56794;SDS011;42678;59.400;18.410;2023-01-28T03:49:55;1.43;;;0.30;;
56794;SDS011;42678;59.400;18.410;2023-01-28T03:52:22;0.60;;;0.20;;
56794;SDS011;42678;59.400;18.410;2023-01-28T03:54:48;2.70;;;0.43;;
56794;SDS011;42678;59.400;18.410;2023-01-28T03:57:14;1.30;;;0.40;;
56794;SDS011;42678;59.400;18.410;2023-01-28T03:59:40;1.45;;;0.30;;
56794;SDS011;42678;59.400;18.410;2023-01-28T04:02:05;1.85;;;0.40;;
56794;SDS011;42678;59.400;18.410;2023-01-28T04:04:31;2.83;;;0.40;;
56794;SDS011;42678;59.400;18.410;2023-01-28T04:06:57;2.20;;;0.28;;
56794;SDS011;42678;59.400;18.410;2023-01-28T04:09:23;8.00;;;0.80;;
56794;SDS011;42678;59.400;18.410;2023-01-28T04:11:48;0.10;;;0.10;;
56794;SDS011;42678;59.400;18.410;2023-01-28T04:14:15;0.45;;;0.20;;
56794;SDS011;42678;59.400;18.410;2023-01-28T04:16:41;2.08;;;0.30;;
56794;SDS011;42678;59.400;18.410;2023-01-28T04:19:07;2.65;;;0.30;;
56794;SDS011;42678;59.400;18.410;2023-01-28T04:21:33;2.05;;;0.30;;
56794;SDS011;42678;59.400;18.410;2023-01-28T04:23:59;3.40;;;0.35;;
56794;SDS011;42678;59.400;18.410;2023-01-28T04:26:26;0.40;;;0.10;;
56794;SDS011;42678;59.400;18.410;2023-01-28T04:28:51;0.45;;;0.10;;
56794;SDS011;42678;59.400;18.410;2023-01-28T04:31:17;1.52;;;0.30;;
56794;SDS011;42678;59.400;18.410;2023-01-28T04:33:42;1.15;;;1.00;;
56794;SDS011;42678;59.400;18.410;2023-01-28T04:36:08;2.65;;;0.15;;
56794;SDS011;42678;59.400;18.410;2023-01-28T04:38:33;5.93;;;0.75;;
56794;SDS011;42678;59.400;18.410;2023-01-28T04:40:59;1.73;;;0.20;;
56794;SDS011;42678;59.400;18.410;2023-01-28T04:43:24;1.27;;;0.38;;
56794;SDS011;42678;59.400;18.410;2023-01-28T04:45:50;1.08;;;0.28;;
56794;SDS011;42678;59.400;18.410;2023-01-28T04:48:15;3.35;;;0.38;;
56794;SDS011;42678;59.400;18.410;2023-01-28T04:50:42;3.22;;;0.50;;
56794;SDS011;42678;59.400;18.410;2023-01-28T04:53:07;3.58;;;0.30;;
56794;SDS011;42678;59.400;18.410;2023-01-28T04:55:33;5.80;;;0.40;;
56794;SDS011;42678;59.400;18.410;2023-01-28T04:57:58;2.95;;;0.20;;
56794;SDS011;42678;59.400;18.410;2023-01-28T05:00:24;5.18;;;0.70;;
56794;SDS011;42678;59.400;18.410;2023-01-28T05:02:49;0.22;;;0.10;;
56794;SDS011;42678;59.400;18.410;2023-01-28T05:05:15;1.85;;;0.20;;
56794;SDS011;42678;59.400;18.410;2023-01-28T05:07:41;1.48;;;0.40;;
56794;SDS011;42678;59.400;18.410;2023-01-28T05:10:06;1.45;;;0.20;;
56794;SDS011;42678;59.400;18.410;2023-01-28T05:12:32;3.65;;;0.52;;
56794;SDS011;42678;59.400;18.410;2023-01-28T05:14:58;1.25;;;0.20;;
56794;SDS011;42678;59.400;18.410;2023-01-28T05:17:27;0.63;;;0.10;;
56794;SDS011;42678;59.400;18.410;2023-01-28T05:19:52;1.92;;;0.28;;
56794;SDS011;42678;59.400;18.410;2023-01-28T05:22:18;1.55;;;0.20;;
56794;SDS011;42678;59.400;18.410;2023-01-28T05:24:43;1.95;;;0.10;;
56794;SDS011;42678;59.400;18.410;2023-01-28T05:27:09;1.88;;;0.22;;
56794;SDS011;42678;59.400;18.410;2023-01-28T05:29:35;2.63;;;0.50;;
56794;SDS011;42678;59.400;18.410;2023-01-28T05:32:00;8.43;;;0.50;;
56794;SDS011;42678;59.400;18.410;2023-01-28T05:34:27;2.03;;;0.25;;
56794;SDS011;42678;59.400;18.410;2023-01-28T05:36:53;3.25;;;0.30;;
56794;SDS011;42678;59.400;18.410;2023-01-28T05:39:18;3.78;;;0.50;;
56794;SDS011;42678;59.400;18.410;2023-01-28T05:41:44;4.00;;;0.40;;
56794;SDS011;42678;59.400;18.410;2023-01-28T05:44:10;3.15;;;0.57;;
56794;SDS011;42678;59.400;18.410;2023-01-28T05:46:35;2.58;;;0.50;;
56794;SDS011;42678;59.400;18.410;2023-01-28T05:49:01;4.35;;;0.50;;
56794;SDS011;42678;59.400;18.410;2023-01-28T05:51:26;1.45;;;0.30;;
56794;SDS011;42678;59.400;18.410;2023-01-28T05:53:52;1.05;;;0.20;;
56794;SDS011;42678;59.400;18.410;2023-01-28T05:56:17;1.50;;;0.30;;
56794;SDS011;42678;59.400;18.410;2023-01-28T05:58:43;4.95;;;0.40;;
56794;SDS011;42678;59.400;18.410;2023-01-28T06:01:09;2.03;;;0.20;;
56794;SDS011;42678;59.400;18.410;2023-01-28T06:03:34;4.72;;;0.50;;
56794;SDS011;42678;59.400;18.410;2023-01-28T06:06:00;0.55;;;0.20;;
56794;SDS011;42678;59.400;18.410;2023-01-28T06:08:25;3.63;;;0.43;;
56794;SDS011;42678;59.400;18.410;2023-01-28T06:10:52;1.08;;;0.10;;
56794;SDS011;42678;59.400;18.410;2023-01-28T06:13:17;1.75;;;0.15;;
56794;SDS011;42678;59.400;18.410;2023-01-28T06:15:43;1.75;;;0.80;;
56794;SDS011;42678;59.400;18.410;2023-01-28T06:18:08;1.80;;;0.50;;
56794;SDS011;42678;59.400;18.410;2023-01-28T06:20:34;4.47;;;0.57;;
56794;SDS011;42678;59.400;18.410;2023-01-28T06:22:59;1.38;;;0.22;;
56794;SDS011;42678;59.400;18.410;2023-01-28T06:25:25;3.25;;;0.20;;
56794;SDS011;42678;59.400;18.410;2023-01-28T06:27:50;4.10;;;0.10;;
56794;SDS011;42678;59.400;18.410;2023-01-28T06:30:17;1.00;;;0.10;;
56794;SDS011;42678;59.400;18.410;2023-01-28T06:32:43;2.88;;;0.43;;
56794;SDS011;42678;59.400;18.410;2023-01-28T06:35:09;6.22;;;0.20;;
56794;SDS011;42678;59.400;18.410;2023-01-28T06:37:36;0.22;;;0.05;;
56794;SDS011;42678;59.400;18.410;2023-01-28T06:40:02;1.40;;;0.25;;
56794;SDS011;42678;59.400;18.410;2023-01-28T06:42:27;1.67;;;0.38;;
56794;SDS011;42678;59.400;18.410;2023-01-28T06:44:53;5.18;;;0.25;;
56794;SDS011;42678;59.400;18.410;2023-01-28T06:47:18;2.22;;;0.40;;
56794;SDS011;42678;59.400;18.410;2023-01-28T06:49:44;2.90;;;0.22;;
56794;SDS011;42678;59.400;18.410;2023-01-28T06:52:09;4.07;;;0.40;;
56794;SDS011;42678;59.400;18.410;2023-01-28T06:54:34;2.55;;;0.50;;
56794;SDS011;42678;59.400;18.410;2023-01-28T06:57:00;1.08;;;0.20;;
56794;SDS011;42678;59.400;18.410;2023-01-28T06:59:25;4.93;;;0.80;;
56794;SDS011;42678;59.400;18.410;2023-01-28T07:01:51;4.65;;;0.30;;
56794;SDS011;42678;59.400;18.410;2023-01-28T07:04:16;0.70;;;0.10;;
56794;SDS011;42678;59.400;18.410;2023-01-28T07:06:42;2.60;;;0.32;;
56794;SDS011;42678;59.400;18.410;2023-01-28T07:09:07;6.03;;;0.65;;
56794;SDS011;42678;59.400;18.410;2023-01-28T07:11:33;3.30;;;0.47;;
56794;SDS011;42678;59.400;18.410;2023-01-28T07:13:58;7.60;;;0.70;;
56794;SDS011;42678;59.400;18.410;2023-01-28T07:16:24;3.15;;;0.52;;
56794;SDS011;42678;59.400;18.410;2023-01-28T07:18:50;4.45;;;0.80;;
56794;SDS011;42678;59.400;18.410;2023-01-28T07:21:16;3.10;;;0.28;;
56794;SDS011;42678;59.400;18.410;2023-01-28T07:23:42;2.45;;;0.30;;
56794;SDS011;42678;59.400;18.410;2023-01-28T07:26:07;2.67;;;0.40;;
56794;SDS011;42678;59.400;18.410;2023-01-28T07:28:33;5.85;;;1.00;;
56794;SDS011;42678;59.400;18.410;2023-01-28T07:30:59;1.27;;;0.28;;
56794;SDS011;42678;59.400;18.410;2023-01-28T07:33:24;8.23;;;0.75;;
56794;SDS011;42678;59.400;18.410;2023-01-28T07:35:49;3.88;;;0.70;;
56794;SDS011;42678;59.400;18.410;2023-01-28T07:38:15;14.15;;;2.13;;
56794;SDS011;42678;59.400;18.410;2023-01-28T07:40:40;3.60;;;1.23;;
56794;SDS011;42678;59.400;18.410;2023-01-28T07:43:09;5.40;;;0.50;;
56794;SDS011;42678;59.400;18.410;2023-01-28T07:45:35;3.33;;;0.57;;
56794;SDS011;42678;59.400;18.410;2023-01-28T07:48:02;2.70;;;0.57;;
56794;SDS011;42678;59.400;18.410;2023-01-28T07:50:28;1.85;;;0.43;;
56794;SDS011;42678;59.400;18.410;2023-01-28T07:52:54;3.88;;;0.35;;
56794;SDS011;42678;59.400;18.410;2023-01-28T07:55:20;4.57;;;1.00;;
56794;SDS011;42678;59.400;18.410;2023-01-28T08:00:17;3.70;;;0.73;;
56794;SDS011;42678;59.400;18.410;2023-01-28T08:02:43;2.42;;;0.82;;
56794;SDS011;42678;59.400;18.410;2023-01-28T08:05:20;13.95;;;1.23;;
56794;SDS011;42678;59.400;18.410;2023-01-28T08:07:46;6.27;;;1.23;;
56794;SDS011;42678;59.400;18.410;2023-01-28T08:10:15;2.05;;;0.70;;
56794;SDS011;42678;59.400;18.410;2023-01-28T08:13:02;5.65;;;1.35;;
56794;SDS011;42678;59.400;18.410;2023-01-28T08:17:52;9.82;;;0.80;;
56794;SDS011;42678;59.400;18.410;2023-01-28T08:20:19;3.13;;;1.00;;
56794;SDS011;42678;59.400;18.410;2023-01-28T08:22:44;8.25;;;1.20;;
56794;SDS011;42678;59.400;18.410;2023-01-28T08:25:11;6.25;;;1.08;;
56794;SDS011;42678;59.400;18.410;2023-01-28T08:27:36;6.75;;;0.85;;
56794;SDS011;42678;59.400;18.410;2023-01-28T08:30:02;6.97;;;1.30;;
56794;SDS011;42678;59.400;18.410;2023-01-28T08:32:29;4.05;;;0.80;;
56794;SDS011;42678;59.400;18.410;2023-01-28T08:34:55;3.97;;;0.57;;
56794;SDS011;42678;59.400;18.410;2023-01-28T08:37:20;4.25;;;1.20;;
56794;SDS011;42678;59.400;18.410;2023-01-28T08:39:45;3.63;;;0.98;;
56794;SDS011;42678;59.400;18.410;2023-01-28T08:42:11;10.13;;;1.20;;
56794;SDS011;42678;59.400;18.410;2023-01-28T08:44:36;7.05;;;1.05;;
56794;SDS011;42678;59.400;18.410;2023-01-28T08:47:02;4.88;;;0.95;;
56794;SDS011;42678;59.400;18.410;2023-01-28T08:49:27;1.42;;;0.45;;
56794;SDS011;42678;59.400;18.410;2023-01-28T08:51:53;5.18;;;1.10;;
56794;SDS011;42678;59.400;18.410;2023-01-28T08:54:19;5.75;;;1.10;;
56794;SDS011;42678;59.400;18.410;2023-01-28T08:56:45;4.28;;;0.80;;
56794;SDS011;42678;59.400;18.410;2023-01-28T08:59:12;14.30;;;0.95;;
56794;SDS011;42678;59.400;18.410;2023-01-28T09:01:38;6.07;;;1.40;;
56794;SDS011;42678;59.400;18.410;2023-01-28T09:04:03;5.53;;;1.42;;
56794;SDS011;42678;59.400;18.410;2023-01-28T09:06:29;7.90;;;1.20;;
56794;SDS011;42678;59.400;18.410;2023-01-28T09:08:58;4.32;;;0.85;;
56794;SDS011;42678;59.400;18.410;2023-01-28T09:11:23;12.25;;;1.17;;
56794;SDS011;42678;59.400;18.410;2023-01-28T09:13:50;9.07;;;1.83;;
56794;SDS011;42678;59.400;18.410;2023-01-28T09:16:15;3.00;;;1.08;;
56794;SDS011;42678;59.400;18.410;2023-01-28T09:18:41;6.38;;;1.20;;
56794;SDS011;42678;59.400;18.410;2023-01-28T09:21:06;3.28;;;0.70;;
56794;SDS011;42678;59.400;18.410;2023-01-28T09:23:36;3.20;;;0.82;;
56794;SDS011;42678;59.400;18.410;2023-01-28T09:26:03;6.05;;;1.42;;
56794;SDS011;42678;59.400;18.410;2023-01-28T09:28:30;7.60;;;1.42;;
56794;SDS011;42678;59.400;18.410;2023-01-28T09:31:02;2.35;;;1.00;;
56794;SDS011;42678;59.400;18.410;2023-01-28T09:33:28;6.47;;;1.20;;
56794;SDS011;42678;59.400;18.410;2023-01-28T09:35:54;3.80;;;0.95;;
56794;SDS011;42678;59.400;18.410;2023-01-28T09:38:19;4.57;;;0.88;;
56794;SDS011;42678;59.400;18.410;2023-01-28T09:40:45;3.25;;;0.77;;
56794;SDS011;42678;59.400;18.410;2023-01-28T09:45:50;5.85;;;1.00;;
56794;SDS011;42678;59.400;18.410;2023-01-28T09:48:18;6.13;;;1.02;;
56794;SDS011;42678;59.400;18.410;2023-01-28T09:50:47;6.20;;;1.02;;
56794;SDS011;42678;59.400;18.410;2023-01-28T09:59:18;8.20;;;1.90;;
56794;SDS011;42678;59.400;18.410;2023-01-28T10:01:46;7.40;;;1.08;;
56794;SDS011;42678;59.400;18.410;2023-01-28T10:06:47;2.03;;;1.25;;
56794;SDS011;42678;59.400;18.410;2023-01-28T10:09:31;5.72;;;1.48;;
56794;SDS011;42678;59.400;18.410;2023-01-28T10:12:02;4.97;;;1.17;;
56794;SDS011;42678;59.400;18.410;2023-01-28T10:17:00;4.50;;;1.30;;
56794;SDS011;42678;59.400;18.410;2023-01-28T10:19:27;3.10;;;0.95;;
56794;SDS011;42678;59.400;18.410;2023-01-28T10:21:56;3.47;;;0.90;;
56794;SDS011;42678;59.400;18.410;2023-01-28T10:25:06;4.07;;;1.02;;
56794;SDS011;42678;59.400;18.410;2023-01-28T10:27:18;2.92;;;0.65;;
56794;SDS011;42678;59.400;18.410;2023-01-28T10:29:44;2.92;;;0.80;;
56794;SDS011;42678;59.400;18.410;2023-01-28T10:34:37;7.13;;;0.93;;
56794;SDS011;42678;59.400;18.410;2023-01-28T10:37:02;3.10;;;0.65;;
56794;SDS011;42678;59.400;18.410;2023-01-28T10:39:28;3.38;;;0.98;;
56794;SDS011;42678;59.400;18.410;2023-01-28T10:41:54;5.18;;;0.93;;
56794;SDS011;42678;59.400;18.410;2023-01-28T10:44:33;2.97;;;0.45;;
56794;SDS011;42678;59.400;18.410;2023-01-28T10:47:02;9.38;;;1.08;;
56794;SDS011;42678;59.400;18.410;2023-01-28T10:49:29;3.20;;;0.80;;
56794;SDS011;42678;59.400;18.410;2023-01-28T10:51:55;8.43;;;1.27;;
56794;SDS011;42678;59.400;18.410;2023-01-28T10:56:51;3.83;;;0.98;;
56794;SDS011;42678;59.400;18.410;2023-01-28T10:59:18;3.67;;;1.35;;
56794;SDS011;42678;59.400;18.410;2023-01-28T11:02:17;1.42;;;0.65;;
56794;SDS011;42678;59.400;18.410;2023-01-28T11:04:31;2.58;;;0.80;;
56794;SDS011;42678;59.400;18.410;2023-01-28T11:07:15;3.65;;;1.15;;
56794;SDS011;42678;59.400;18.410;2023-01-28T11:09:44;8.00;;;0.73;;
56794;SDS011;42678;59.400;18.410;2023-01-28T11:12:17;4.93;;;0.73;;
56794;SDS011;42678;59.400;18.410;2023-01-28T11:14:56;4.10;;;0.50;;
56794;SDS011;42678;59.400;18.410;2023-01-28T11:17:23;4.13;;;0.70;;
56794;SDS011;42678;59.400;18.410;2023-01-28T11:19:50;3.83;;;0.80;;
56794;SDS011;42678;59.400;18.410;2023-01-28T11:24:54;2.95;;;1.67;;
56794;SDS011;42678;59.400;18.410;2023-01-28T11:27:21;6.65;;;0.90;;
56794;SDS011;42678;59.400;18.410;2023-01-28T11:29:50;1.80;;;0.65;;
56794;SDS011;42678;59.400;18.410;2023-01-28T11:32:19;3.20;;;0.80;;
56794;SDS011;42678;59.400;18.410;2023-01-28T11:34:51;6.63;;;1.00;;
56794;SDS011;42678;59.400;18.410;2023-01-28T11:37:16;6.97;;;0.98;;
56794;SDS011;42678;59.400;18.410;2023-01-28T11:39:45;5.47;;;0.80;;
56794;SDS011;42678;59.400;18.410;2023-01-28T11:44:38;3.25;;;0.70;;
56794;SDS011;42678;59.400;18.410;2023-01-28T11:55:39;6.30;;;0.93;;
56794;SDS011;42678;59.400;18.410;2023-01-28T11:58:17;5.90;;;1.10;;
56794;SDS011;42678;59.400;18.410;2023-01-28T12:01:01;5.88;;;1.08;;
56794;SDS011;42678;59.400;18.410;2023-01-28T12:05:56;5.47;;;0.70;;
56794;SDS011;42678;59.400;18.410;2023-01-28T12:16:17;4.10;;;0.90;;
56794;SDS011;42678;59.400;18.410;2023-01-28T12:21:36;10.50;;;1.42;;
56794;SDS011;42678;59.400;18.410;2023-01-28T12:24:19;6.78;;;1.98;;
56794;SDS011;42678;59.400;18.410;2023-01-28T12:29:21;7.45;;;1.27;;
56794;SDS011;42678;59.400;18.410;2023-01-28T12:32:02;6.65;;;1.02;;
56794;SDS011;42678;59.400;18.410;2023-01-28T12:37:13;4.18;;;1.20;;
56794;SDS011;42678;59.400;18.410;2023-01-28T12:47:53;6.78;;;0.95;;
56794;SDS011;42678;59.400;18.410;2023-01-28T12:50:21;9.30;;;1.25;;
56794;SDS011;42678;59.400;18.410;2023-01-28T12:52:51;4.68;;;1.08;;
56794;SDS011;42678;59.400;18.410;2023-01-28T12:57:46;7.05;;;1.30;;
56794;SDS011;42678;59.400;18.410;2023-01-28T13:00:24;7.03;;;1.17;;
56794;SDS011;42678;59.400;18.410;2023-01-28T13:03:10;4.95;;;0.73;;
56794;SDS011;42678;59.400;18.410;2023-01-28T13:05:40;6.80;;;1.33;;
56794;SDS011;42678;59.400;18.410;2023-01-28T13:08:29;3.50;;;0.77;;
56794;SDS011;42678;59.400;18.410;2023-01-28T13:10:54;7.03;;;1.40;;
56794;SDS011;42678;59.400;18.410;2023-01-28T13:15:55;3.85;;;0.90;;
56794;SDS011;42678;59.400;18.410;2023-01-28T13:18:29;4.47;;;0.95;;
56794;SDS011;42678;59.400;18.410;2023-01-28T13:20:56;5.93;;;1.42;;
56794;SDS011;42678;59.400;18.410;2023-01-28T13:23:25;8.23;;;1.10;;
56794;SDS011;42678;59.400;18.410;2023-01-28T13:25:54;7.45;;;1.05;;
56794;SDS011;42678;59.400;18.410;2023-01-28T13:30:51;2.33;;;0.80;;
56794;SDS011;42678;59.400;18.410;2023-01-28T13:33:26;9.20;;;1.52;;
56794;SDS011;42678;59.400;18.410;2023-01-28T13:35:53;5.80;;;0.70;;
56794;SDS011;42678;59.400;18.410;2023-01-28T13:38:19;6.55;;;1.10;;
56794;SDS011;42678;59.400;18.410;2023-01-28T13:40:58;6.30;;;1.10;;
56794;SDS011;42678;59.400;18.410;2023-01-28T13:46:09;5.13;;;1.42;;
56794;SDS011;42678;59.400;18.410;2023-01-28T13:48:39;5.15;;;1.35;;
56794;SDS011;42678;59.400;18.410;2023-01-28T13:51:17;10.30;;;2.42;;
56794;SDS011;42678;59.400;18.410;2023-01-28T13:53:52;5.93;;;1.35;;
56794;SDS011;42678;59.400;18.410;2023-01-28T13:56:27;6.22;;;1.73;;
56794;SDS011;42678;59.400;18.410;2023-01-28T14:01:32;7.28;;;1.67;;
56794;SDS011;42678;59.400;18.410;2023-01-28T14:04:07;3.83;;;1.20;;
56794;SDS011;42678;59.400;18.410;2023-01-28T14:19:32;4.07;;;0.80;;
56794;SDS011;42678;59.400;18.410;2023-01-28T14:21:58;9.02;;;1.15;;
56794;SDS011;42678;59.400;18.410;2023-01-28T14:24:30;6.32;;;1.20;;
56794;SDS011;42678;59.400;18.410;2023-01-28T14:27:09;6.90;;;0.90;;
56794;SDS011;42678;59.400;18.410;2023-01-28T14:32:18;4.78;;;1.10;;
56794;SDS011;42678;59.400;18.410;2023-01-28T14:34:46;4.97;;;0.95;;
56794;SDS011;42678;59.400;18.410;2023-01-28T14:37:19;5.90;;;0.90;;
56794;SDS011;42678;59.400;18.410;2023-01-28T14:39:50;13.25;;;1.48;;
56794;SDS011;42678;59.400;18.410;2023-01-28T14:42:21;5.22;;;0.90;;
56794;SDS011;42678;59.400;18.410;2023-01-28T14:44:48;8.88;;;2.75;;
56794;SDS011;42678;59.400;18.410;2023-01-28T14:47:26;6.30;;;0.90;;
56794;SDS011;42678;59.400;18.410;2023-01-28T14:55:39;6.90;;;0.85;;
56794;SDS011;42678;59.400;18.410;2023-01-28T14:58:08;4.70;;;1.13;;
56794;SDS011;42678;59.400;18.410;2023-01-28T15:00:35;8.07;;;1.27;;
56794;SDS011;42678;59.400;18.410;2023-01-28T15:03:16;4.65;;;1.02;;
56794;SDS011;42678;59.400;18.410;2023-01-28T15:05:42;4.85;;;1.00;;
56794;SDS011;42678;59.400;18.410;2023-01-28T15:08:07;5.22;;;1.25;;
56794;SDS011;42678;59.400;18.410;2023-01-28T15:10:43;7.03;;;1.75;;
56794;SDS011;42678;59.400;18.410;2023-01-28T15:13:09;3.78;;;1.45;;
56794;SDS011;42678;59.400;18.410;2023-01-28T15:15:40;9.30;;;1.55;;
56794;SDS011;42678;59.400;18.410;2023-01-28T15:18:15;7.25;;;1.88;;
56794;SDS011;42678;59.400;18.410;2023-01-28T15:20:46;4.03;;;1.20;;
56794;SDS011;42678;59.400;18.410;2023-01-28T15:23:16;8.93;;;1.40;;
56794;SDS011;42678;59.400;18.410;2023-01-28T15:25:42;8.70;;;1.13;;
56794;SDS011;42678;59.400;18.410;2023-01-28T15:28:08;5.00;;;1.35;;
56794;SDS011;42678;59.400;18.410;2023-01-28T15:30:43;6.78;;;1.15;;
56794;SDS011;42678;59.400;18.410;2023-01-28T15:33:12;6.78;;;2.13;;
56794;SDS011;42678;59.400;18.410;2023-01-28T15:35:45;5.70;;;1.55;;
56794;SDS011;42678;59.400;18.410;2023-01-28T15:38:10;4.75;;;1.65;;
56794;SDS011;42678;59.400;18.410;2023-01-28T15:40:39;6.88;;;1.77;;
56794;SDS011;42678;59.400;18.410;2023-01-28T15:43:11;3.47;;;0.90;;
56794;SDS011;42678;59.400;18.410;2023-01-28T15:45:39;2.50;;;0.85;;
56794;SDS011;42678;59.400;18.410;2023-01-28T15:48:09;8.32;;;1.67;;
56794;SDS011;42678;59.400;18.410;2023-01-28T15:50:35;7.68;;;2.40;;
56794;SDS011;42678;59.400;18.410;2023-01-28T15:53:02;7.00;;;1.45;;
56794;SDS011;42678;59.400;18.410;2023-01-28T15:58:19;4.75;;;1.90;;
56794;SDS011;42678;59.400;18.410;2023-01-28T16:00:46;5.78;;;1.27;;
56794;SDS011;42678;59.400;18.410;2023-01-28T16:03:19;6.15;;;1.80;;
56794;SDS011;42678;59.400;18.410;2023-01-28T16:05:52;6.47;;;1.33;;
56794;SDS011;42678;59.400;18.410;2023-01-28T16:08:25;6.93;;;1.55;;
56794;SDS011;42678;59.400;18.410;2023-01-28T16:10:52;7.35;;;1.35;;
56794;SDS011;42678;59.400;18.410;2023-01-28T16:13:19;3.85;;;1.40;;
56794;SDS011;42678;59.400;18.410;2023-01-28T16:15:46;7.82;;;1.60;;
56794;SDS011;42678;59.400;18.410;2023-01-28T16:18:45;5.75;;;1.48;;
56794;SDS011;42678;59.400;18.410;2023-01-28T16:21:04;6.70;;;1.73;;
56794;SDS011;42678;59.400;18.410;2023-01-28T16:23:31;8.98;;;1.45;;
56794;SDS011;42678;59.400;18.410;2023-01-28T16:25:57;6.97;;;1.73;;
56794;SDS011;42678;59.400;18.410;2023-01-28T16:28:24;5.45;;;1.77;;
56794;SDS011;42678;59.400;18.410;2023-01-28T16:30:49;7.15;;;1.55;;
56794;SDS011;42678;59.400;18.410;2023-01-28T16:33:20;6.45;;;1.83;;
56794;SDS011;42678;59.400;18.410;2023-01-28T16:35:46;5.35;;;1.23;;
56794;SDS011;42678;59.400;18.410;2023-01-28T16:38:13;5.47;;;1.42;;
56794;SDS011;42678;59.400;18.410;2023-01-28T16:40:45;6.93;;;2.13;;